createdAt,value
2023-03-03T00:02:08.122Z,63.13
2023-03-03T00:04:36.980Z,61.85
2023-03-03T00:07:05.629Z,61.47
2023-03-03T00:09:35.942Z,64.30
2023-03-03T00:12:21.730Z,60.75
2023-03-03T00:14:52.346Z,55.78
2023-03-03T00:17:30.956Z,57.72
2023-03-03T00:20:02.845Z,57.47
2023-03-03T00:22:37.768Z,64.20
2023-03-03T00:25:19.799Z,57.70
2023-03-03T00:27:48.681Z,60.85
2023-03-03T00:30:29.678Z,62.22
2023-03-03T00:32:58.695Z,67.10
2023-03-03T00:35:36.182Z,62.05
2023-03-03T00:38:18.068Z,65.00
2023-03-03T00:40:47.469Z,65.75
2023-03-03T00:43:21.860Z,58.95
2023-03-03T00:45:52.536Z,57.65
2023-03-03T00:48:36.887Z,61.63
2023-03-03T00:51:32.285Z,61.47
2023-03-03T00:54:00.641Z,58.92
2023-03-03T00:56:33.591Z,66.95
2023-03-03T00:59:02.348Z,62.80
2023-03-03T01:01:34.952Z,58.17
2023-03-03T01:04:04.455Z,65.05
2023-03-03T01:06:35.814Z,59.70
2023-03-03T01:09:04.778Z,60.75
2023-03-03T01:11:39.759Z,59.22
2023-03-03T01:14:11.265Z,61.95
2023-03-03T01:16:41.905Z,58.92
2023-03-03T01:19:11.210Z,57.22
2023-03-03T01:21:41.329Z,54.35
2023-03-03T01:24:10.868Z,56.13
2023-03-03T01:26:42.579Z,56.63
2023-03-03T01:29:11.556Z,61.05
2023-03-03T01:31:41.861Z,56.95
2023-03-03T01:34:11.032Z,52.05
2023-03-03T01:36:40.651Z,57.45
2023-03-03T01:39:11.158Z,59.78
2023-03-03T01:41:41.801Z,57.80
2023-03-03T01:44:15.699Z,59.20
2023-03-03T01:46:57.999Z,64.53
2023-03-03T01:49:30.996Z,60.30
2023-03-03T01:52:02.857Z,63.20
2023-03-03T01:54:47.723Z,59.22
2023-03-03T01:57:24.103Z,58.45
2023-03-03T01:59:53.702Z,60.22
2023-03-03T02:02:24.019Z,59.80
2023-03-03T02:04:54.896Z,57.45
2023-03-03T02:07:27.974Z,54.72
2023-03-03T02:10:20.212Z,59.05
2023-03-03T02:12:59.332Z,57.80
2023-03-03T02:15:38.726Z,56.10
2023-03-03T02:18:13.691Z,57.60
2023-03-03T02:21:03.316Z,60.30
2023-03-03T02:23:44.129Z,58.63
2023-03-03T02:26:23.102Z,61.35
2023-03-03T02:28:56.782Z,58.85
2023-03-03T02:31:28.823Z,56.85
2023-03-03T02:33:57.856Z,57.38
2023-03-03T02:36:32.515Z,57.20
2023-03-03T02:39:22.597Z,59.78
2023-03-03T02:42:02.321Z,68.22
2023-03-03T02:44:43.702Z,63.63
2023-03-03T02:47:12.069Z,63.85
2023-03-03T02:49:43.077Z,61.20
2023-03-03T02:52:20.317Z,58.45
2023-03-03T02:54:56.864Z,53.88
2023-03-03T02:57:27.016Z,57.15
2023-03-03T02:59:56.608Z,51.13
2023-03-03T03:02:24.892Z,55.67
2023-03-03T03:04:53.484Z,56.25
2023-03-03T03:07:25.965Z,62.22
2023-03-03T03:09:55.138Z,60.13
2023-03-03T03:12:24.232Z,63.35
2023-03-03T03:14:57.405Z,62.70
2023-03-03T03:17:27.562Z,74.20
2023-03-03T03:19:58.315Z,66.60
2023-03-03T03:22:29.792Z,119.47
2023-03-03T03:24:58.752Z,129.25
2023-03-03T03:27:27.078Z,234.98
2023-03-03T03:30:02.967Z,280.02
2023-03-03T03:32:32.672Z,290.50
2023-03-03T03:35:03.966Z,174.85
2023-03-03T03:37:33.706Z,119.28
2023-03-03T03:40:05.368Z,136.77
2023-03-03T03:42:34.726Z,135.85
2023-03-03T03:45:04.653Z,159.27
2023-03-03T03:47:34.172Z,96.68
2023-03-03T03:50:04.460Z,96.60
2023-03-03T03:52:35.684Z,76.40
2023-03-03T03:55:09.156Z,77.97
2023-03-03T03:57:42.040Z,57.38
2023-03-03T04:00:13.491Z,141.25
2023-03-03T04:02:51.403Z,271.23
2023-03-03T04:05:24.602Z,125.55
2023-03-03T04:07:53.546Z,74.88
2023-03-03T04:10:23.831Z,67.25
2023-03-03T04:12:52.736Z,54.90
2023-03-03T04:15:25.679Z,52.92
2023-03-03T04:20:43.686Z,51.30
2023-03-03T04:23:12.962Z,45.50
2023-03-03T04:25:54.796Z,46.33
2023-03-03T04:28:26.114Z,73.15
2023-03-03T04:31:00.160Z,77.30
2023-03-03T04:33:30.718Z,69.80
2023-03-03T04:36:01.003Z,57.50
2023-03-03T04:38:30.844Z,91.30
2023-03-03T04:41:00.644Z,75.40
2023-03-03T04:43:34.950Z,49.17
2023-03-03T04:46:12.557Z,104.60
2023-03-03T04:48:43.538Z,84.80
2023-03-03T04:51:17.705Z,51.17
2023-03-03T04:53:48.636Z,49.42
2023-03-03T04:56:17.672Z,50.08
2023-03-03T04:58:49.375Z,45.25
2023-03-03T05:01:20.375Z,62.42
2023-03-03T05:03:51.276Z,42.53
2023-03-03T05:06:21.311Z,54.60
2023-03-03T05:08:49.923Z,46.13
2023-03-03T05:11:20.368Z,45.40
2023-03-03T05:13:48.780Z,34.63
2023-03-03T05:16:18.456Z,39.95
2023-03-03T05:18:51.553Z,43.00
2023-03-03T05:21:24.477Z,92.30
2023-03-03T05:23:54.920Z,111.28
2023-03-03T05:26:23.693Z,45.60
2023-03-03T05:28:52.304Z,41.13
2023-03-03T05:31:21.464Z,41.05
2023-03-03T05:33:50.077Z,41.60
2023-03-03T05:36:18.827Z,36.42
2023-03-03T05:38:47.146Z,32.38
2023-03-03T05:41:16.081Z,41.40
2023-03-03T05:43:47.552Z,31.27
2023-03-03T05:46:17.647Z,32.67
2023-03-03T05:48:47.887Z,38.60
2023-03-03T05:51:19.138Z,33.40
2023-03-03T05:53:56.321Z,32.13
2023-03-03T05:56:25.837Z,31.58
2023-03-03T05:58:54.854Z,37.00
2023-03-03T06:01:24.989Z,30.60
2023-03-03T06:03:54.240Z,31.33
2023-03-03T06:06:24.208Z,29.23
2023-03-03T06:08:56.894Z,29.33
2023-03-03T06:11:33.821Z,30.10
2023-03-03T06:14:05.130Z,29.98
2023-03-03T06:16:37.720Z,35.30
2023-03-03T06:19:06.838Z,30.75
2023-03-03T06:21:35.643Z,34.97
2023-03-03T06:24:05.678Z,33.45
2023-03-03T06:26:37.099Z,47.03
2023-03-03T06:29:06.888Z,33.97
2023-03-03T06:31:37.306Z,30.10
2023-03-03T06:34:05.752Z,41.03
2023-03-03T06:36:37.208Z,33.50
2023-03-03T06:39:06.590Z,35.75
2023-03-03T06:41:42.425Z,35.95
2023-03-03T06:44:13.430Z,35.00
2023-03-03T06:46:44.653Z,35.30
2023-03-03T06:49:14.319Z,33.30
2023-03-03T06:51:48.136Z,40.80
2023-03-03T06:54:20.985Z,40.15
2023-03-03T06:56:59.316Z,33.47
2023-03-03T06:59:29.019Z,32.85
2023-03-03T07:01:58.026Z,39.70
2023-03-03T07:04:33.849Z,34.58
2023-03-03T07:07:16.685Z,33.17
2023-03-03T07:09:55.643Z,37.28
2023-03-03T07:12:31.196Z,42.50
2023-03-03T07:15:34.865Z,37.75
2023-03-03T07:18:32.715Z,38.72
2023-03-03T07:21:19.672Z,38.70
2023-03-03T07:23:58.765Z,37.33
2023-03-03T07:26:34.428Z,36.17
2023-03-03T07:29:29.015Z,32.85
2023-03-03T07:31:59.204Z,39.22
2023-03-03T07:34:44.164Z,32.45
2023-03-03T07:37:21.177Z,35.08
2023-03-03T07:39:51.888Z,31.70
2023-03-03T07:42:46.351Z,34.63
2023-03-03T07:45:29.508Z,28.45
2023-03-03T07:48:33.518Z,29.67
2023-03-03T07:51:20.117Z,28.02
2023-03-03T07:53:49.449Z,30.35
2023-03-03T07:56:27.150Z,29.00
2023-03-03T07:58:56.352Z,28.48
2023-03-03T08:01:43.920Z,44.13
2023-03-03T08:04:17.847Z,26.20
2023-03-03T08:06:58.299Z,24.10
2023-03-03T08:09:31.559Z,31.88
2023-03-03T08:12:37.656Z,33.97
2023-03-03T08:15:17.744Z,27.67
2023-03-03T08:17:51.731Z,100.35
2023-03-03T08:20:45.605Z,27.63
2023-03-03T08:23:16.108Z,23.35
2023-03-03T08:25:52.096Z,29.50
2023-03-03T08:28:22.809Z,19.15
2023-03-03T08:30:54.427Z,99.45
2023-03-03T08:33:32.384Z,35.15
2023-03-03T08:36:05.798Z,21.17
2023-03-03T08:38:36.502Z,23.55
2023-03-03T08:41:05.198Z,52.45
2023-03-03T08:43:33.893Z,21.08
2023-03-03T08:46:06.410Z,22.33
2023-03-03T08:48:39.161Z,16.67
2023-03-03T08:51:10.627Z,22.65
2023-03-03T08:53:42.180Z,15.75
2023-03-03T08:56:12.407Z,22.02
2023-03-03T08:59:01.127Z,17.27
2023-03-03T09:01:32.140Z,13.77
2023-03-03T09:04:02.112Z,17.40
2023-03-03T09:06:31.399Z,17.42
2023-03-03T09:09:00.445Z,20.63
2023-03-03T09:11:30.347Z,19.25
2023-03-03T09:14:18.335Z,21.30
2023-03-03T09:16:54.573Z,21.48
2023-03-03T09:21:56.703Z,14.98
2023-03-03T09:24:29.397Z,18.08
2023-03-03T09:27:00.041Z,19.58
2023-03-03T09:29:30.744Z,13.52
2023-03-03T09:32:14.902Z,17.10
2023-03-03T09:34:44.798Z,14.52
2023-03-03T09:37:24.715Z,19.45
2023-03-03T09:40:01.006Z,16.38
2023-03-03T09:42:31.060Z,14.23
2023-03-03T09:45:23.988Z,50.78
2023-03-03T09:47:54.084Z,13.52
2023-03-03T09:50:36.505Z,13.02
2023-03-03T09:53:40.332Z,12.93
2023-03-03T09:56:20.908Z,14.77
2023-03-03T09:59:14.479Z,19.33
2023-03-03T10:02:26.229Z,11.07
2023-03-03T10:05:34.115Z,9.85
2023-03-03T10:08:36.270Z,16.48
2023-03-03T10:11:04.577Z,13.93
2023-03-03T10:14:00.977Z,11.43
2023-03-03T10:17:06.679Z,19.73
2023-03-03T10:19:39.061Z,14.23
2023-03-03T10:22:28.780Z,13.73
2023-03-03T10:25:39.026Z,13.13
2023-03-03T10:28:46.227Z,14.82
2023-03-03T10:31:53.894Z,14.43
2023-03-03T10:34:45.668Z,13.45
2023-03-03T10:37:49.224Z,22.23
2023-03-03T10:40:36.528Z,12.88
2023-03-03T10:43:48.244Z,12.27
2023-03-03T10:46:57.766Z,12.65
2023-03-03T10:49:32.457Z,15.35
2023-03-03T10:52:04.080Z,12.18
2023-03-03T10:54:51.135Z,12.32
2023-03-03T10:57:41.373Z,13.23
2023-03-03T11:00:22.998Z,27.27
2023-03-03T11:03:10.325Z,29.67
2023-03-03T11:06:01.359Z,16.98
2023-03-03T11:08:57.602Z,18.63
2023-03-03T11:11:27.522Z,18.08
2023-03-03T11:14:24.040Z,13.93
2023-03-03T11:17:10.991Z,40.00
2023-03-03T11:20:01.236Z,19.15
2023-03-03T11:22:41.838Z,11.85
2023-03-03T11:25:33.474Z,10.68
2023-03-03T11:28:24.104Z,15.48
2023-03-03T11:31:07.296Z,14.25
2023-03-03T11:34:07.354Z,18.65
2023-03-03T11:36:36.223Z,13.90
2023-03-03T11:39:38.887Z,25.08
2023-03-03T11:42:38.368Z,21.90
2023-03-03T11:45:19.323Z,14.40
2023-03-03T11:48:09.051Z,14.45
2023-03-03T11:51:07.450Z,17.33
2023-03-03T11:54:05.257Z,29.30
2023-03-03T11:56:55.329Z,18.13
2023-03-03T11:59:56.197Z,13.93
2023-03-03T12:02:48.153Z,15.20
2023-03-03T12:05:55.423Z,38.38
2023-03-03T12:09:11.851Z,15.48
2023-03-03T12:11:53.535Z,13.95
2023-03-03T12:15:00.989Z,15.43
2023-03-03T12:18:05.927Z,17.15
2023-03-03T12:20:46.138Z,16.50
2023-03-03T12:23:18.970Z,17.20
2023-03-03T12:26:16.666Z,16.60
2023-03-03T12:28:47.680Z,18.80
2023-03-03T12:31:47.998Z,13.07
2023-03-03T12:34:36.705Z,18.63
2023-03-03T12:37:19.054Z,28.92
2023-03-03T12:40:14.266Z,16.30
2023-03-03T12:42:44.400Z,15.63
2023-03-03T12:45:53.650Z,19.67
2023-03-03T12:48:49.998Z,16.25
2023-03-03T12:51:57.995Z,12.70
2023-03-03T12:55:30.870Z,26.15
2023-03-03T12:58:35.542Z,43.15
2023-03-03T13:01:36.841Z,41.65
2023-03-03T13:04:48.246Z,55.30
2023-03-03T13:07:33.297Z,35.60
2023-03-03T13:10:09.842Z,40.45
2023-03-03T13:12:57.729Z,19.25
2023-03-03T13:15:33.976Z,93.65
2023-03-03T13:18:03.921Z,20.73
2023-03-03T13:20:41.836Z,18.15
2023-03-03T13:23:43.023Z,15.63
2023-03-03T13:26:51.782Z,18.50
2023-03-03T13:29:56.100Z,29.35
2023-03-03T13:32:33.378Z,34.65
2023-03-03T13:35:09.450Z,13.93
2023-03-03T13:37:54.999Z,19.33
2023-03-03T13:41:00.376Z,16.33
2023-03-03T13:44:00.103Z,14.60
2023-03-03T13:46:55.061Z,15.13
2023-03-03T13:50:03.102Z,17.25
2023-03-03T13:52:49.762Z,30.40
2023-03-03T13:55:37.520Z,21.40
2023-03-03T14:01:02.086Z,20.30
2023-03-03T14:03:59.766Z,17.17
2023-03-03T14:06:31.041Z,23.38
2023-03-03T14:08:59.961Z,23.42
2023-03-03T14:11:50.121Z,19.83
2023-03-03T14:14:46.861Z,20.83
2023-03-03T14:17:42.181Z,22.58
2023-03-03T14:20:53.825Z,62.60
2023-03-03T14:23:43.325Z,28.33
2023-03-03T14:26:16.028Z,22.30
2023-03-03T14:28:55.914Z,21.50
2023-03-03T14:31:48.091Z,22.15
2023-03-03T14:34:44.893Z,26.80
2023-03-03T14:37:43.540Z,28.65
2023-03-03T14:40:36.829Z,17.83
2023-03-03T14:43:37.042Z,18.27
2023-03-03T14:46:37.792Z,18.85
2023-03-03T14:49:29.478Z,15.98
2023-03-03T14:52:21.409Z,23.35
2023-03-03T14:55:05.253Z,21.70
2023-03-03T14:57:55.697Z,19.33
2023-03-03T15:00:34.128Z,20.27
2023-03-03T15:03:23.380Z,26.45
2023-03-03T15:06:06.733Z,68.80
2023-03-03T15:08:41.126Z,55.97
2023-03-03T15:11:43.912Z,47.50
2023-03-03T15:14:19.154Z,35.20
2023-03-03T15:16:48.448Z,50.80
2023-03-03T15:19:19.013Z,39.20
2023-03-03T15:22:22.237Z,25.70
2023-03-03T15:25:04.077Z,40.17
2023-03-03T15:27:48.821Z,37.58
2023-03-03T15:30:36.959Z,30.45
2023-03-03T15:33:41.979Z,26.05
2023-03-03T15:36:37.721Z,30.45
2023-03-03T15:39:43.719Z,35.30
2023-03-03T15:42:23.451Z,45.55
2023-03-03T15:45:24.863Z,50.70
2023-03-03T15:48:23.821Z,31.80
2023-03-03T15:51:30.759Z,30.45
2023-03-03T15:54:23.678Z,22.75
2023-03-03T15:56:59.937Z,37.38
2023-03-03T16:00:06.091Z,33.22
2023-03-03T16:02:43.889Z,31.00
2023-03-03T16:05:19.550Z,24.30
2023-03-03T16:08:09.480Z,27.65
2023-03-03T16:10:56.771Z,34.33
2023-03-03T16:14:49.552Z,36.30
2023-03-03T16:18:02.712Z,22.90
2023-03-03T16:21:07.776Z,27.50
2023-03-03T16:23:58.769Z,27.20
2023-03-03T16:26:54.344Z,31.40
2023-03-03T16:30:15.962Z,42.65
2023-03-03T16:33:14.635Z,26.55
2023-03-03T16:36:14.379Z,35.40
2023-03-03T16:38:48.634Z,27.92
2023-03-03T16:41:43.554Z,26.40
2023-03-03T16:44:35.181Z,33.35
2023-03-03T16:47:28.140Z,26.77
2023-03-03T16:50:24.680Z,25.13
2023-03-03T16:53:17.638Z,23.17
2023-03-03T16:59:36.221Z,21.25
2023-03-03T17:02:14.797Z,29.88
2023-03-03T17:04:51.358Z,22.52
2023-03-03T17:07:49.863Z,23.30
2023-03-03T17:10:40.714Z,23.92
2023-03-03T17:13:42.566Z,30.05
2023-03-03T17:16:42.879Z,22.00
2023-03-03T17:19:42.188Z,20.13
2023-03-03T17:22:26.541Z,19.50
2023-03-03T17:25:23.519Z,17.73
2023-03-03T17:28:04.216Z,18.23
2023-03-03T17:31:13.286Z,26.10
2023-03-03T17:33:44.657Z,44.50
2023-03-03T17:36:32.011Z,35.50
2023-03-03T17:39:21.634Z,39.05
2023-03-03T17:42:05.276Z,34.00
2023-03-03T17:45:09.982Z,34.05
2023-03-03T17:47:57.187Z,23.30
2023-03-03T17:51:04.001Z,21.90
2023-03-03T17:53:48.963Z,32.35
2023-03-03T17:56:43.977Z,37.40
2023-03-03T17:59:53.286Z,29.77
2023-03-03T18:02:30.756Z,35.25
2023-03-03T18:05:20.415Z,30.80
2023-03-03T18:07:59.436Z,36.60
2023-03-03T18:11:03.864Z,28.05
2023-03-03T18:14:06.490Z,21.05
2023-03-03T18:16:54.377Z,24.63
2023-03-03T18:20:06.622Z,28.60
2023-03-03T18:22:54.261Z,26.65
2023-03-03T18:25:25.417Z,27.10
2023-03-03T18:28:00.579Z,30.85
2023-03-03T18:30:35.281Z,45.50
2023-03-03T18:33:11.297Z,55.58
2023-03-03T18:35:47.946Z,68.32
2023-03-03T18:38:16.996Z,49.53
2023-03-03T18:40:52.451Z,30.75
2023-03-03T18:44:00.097Z,30.23
2023-03-03T18:46:45.873Z,28.98
2023-03-03T18:49:14.856Z,55.15
2023-03-03T18:51:45.877Z,64.75
2023-03-03T18:54:18.601Z,50.33
2023-03-03T18:56:48.325Z,38.22
2023-03-03T18:59:41.401Z,28.45
2023-03-03T19:02:43.950Z,40.30
2023-03-03T19:05:54.259Z,62.90
2023-03-03T19:08:29.182Z,63.58
2023-03-03T19:12:00.859Z,35.83
2023-03-03T19:14:34.608Z,45.35
2023-03-03T19:17:22.342Z,31.85
2023-03-03T19:20:11.992Z,43.97
2023-03-03T19:23:00.823Z,31.00
2023-03-03T19:25:34.404Z,78.22
2023-03-03T19:28:28.187Z,100.65
2023-03-03T19:31:47.988Z,165.15
2023-03-03T19:34:39.866Z,101.93
2023-03-03T19:37:37.392Z,68.70
2023-03-03T19:40:26.824Z,47.13
2023-03-03T19:43:03.040Z,46.63
2023-03-03T19:49:09.598Z,74.85
2023-03-03T19:52:17.505Z,94.82
2023-03-03T19:55:30.848Z,186.15
2023-03-03T19:58:18.012Z,96.65
2023-03-03T20:01:06.350Z,46.33
2023-03-03T20:04:03.803Z,41.97
2023-03-03T20:07:13.832Z,48.22
2023-03-03T20:10:03.564Z,33.97
2023-03-03T20:13:08.005Z,34.28
2023-03-03T20:20:36.285Z,57.38
2023-03-03T20:23:06.543Z,34.70
2023-03-03T20:26:26.390Z,29.60
2023-03-03T20:29:06.536Z,31.95
2023-03-03T20:31:36.312Z,29.33
2023-03-03T20:34:35.538Z,28.45
2023-03-03T20:37:15.272Z,30.67
2023-03-03T20:39:59.329Z,27.25
2023-03-03T20:42:55.725Z,26.40
2023-03-03T20:46:05.274Z,27.08
2023-03-03T20:48:50.820Z,25.25
2023-03-03T20:51:39.949Z,24.42
2023-03-03T20:54:18.272Z,32.28
2023-03-03T20:56:53.620Z,33.70
2023-03-03T20:59:37.357Z,26.58
2023-03-03T21:02:38.550Z,30.98
2023-03-03T21:05:13.445Z,32.10
2023-03-03T21:08:52.570Z,32.53
2023-03-03T21:11:42.498Z,27.25
2023-03-03T21:20:32.518Z,31.17
2023-03-03T21:23:07.248Z,49.72
2023-03-03T21:25:42.431Z,41.30
2023-03-03T21:28:26.842Z,45.83
2023-03-03T21:31:19.576Z,33.28
2023-03-03T21:33:49.593Z,27.00
2023-03-03T21:36:50.292Z,22.27
2023-03-03T21:39:46.749Z,22.63
2023-03-03T21:42:19.469Z,26.48
2023-03-03T21:45:00.174Z,71.05
2023-03-03T21:47:29.819Z,31.10
2023-03-03T21:50:01.096Z,24.63
2023-03-03T21:55:38.688Z,26.08
2023-03-03T21:58:08.693Z,25.95
2023-03-03T22:00:38.631Z,29.58
2023-03-03T22:03:08.555Z,31.58
2023-03-03T22:05:40.950Z,24.55
2023-03-03T22:08:11.175Z,30.67
2023-03-03T22:10:56.049Z,23.95
2023-03-03T22:13:31.533Z,23.73
2023-03-03T22:16:05.485Z,24.02
2023-03-03T22:18:35.712Z,24.90
2023-03-03T22:21:11.760Z,24.17
2023-03-03T22:23:40.444Z,24.38
2023-03-03T22:26:10.994Z,23.95
2023-03-03T22:30:11.841Z,25.17
2023-03-03T22:32:41.582Z,25.38
2023-03-03T22:35:18.562Z,25.08
2023-03-03T22:37:48.065Z,27.80
2023-03-03T22:40:18.061Z,24.88
2023-03-03T22:42:48.555Z,25.70
2023-03-03T22:45:18.222Z,27.20
2023-03-03T22:47:53.882Z,26.98
2023-03-03T22:50:23.438Z,23.92
2023-03-03T22:52:54.986Z,27.05
2023-03-03T22:55:23.627Z,23.30
2023-03-03T22:58:00.308Z,22.40
2023-03-03T23:00:30.609Z,24.00
2023-03-03T23:03:00.721Z,22.58
2023-03-03T23:05:33.520Z,23.50
2023-03-03T23:08:07.696Z,23.55
2023-03-03T23:10:39.033Z,27.38
2023-03-03T23:13:09.126Z,22.80
2023-03-03T23:15:38.749Z,26.27
2023-03-03T23:18:07.540Z,26.42
2023-03-03T23:20:37.002Z,22.67
2023-03-03T23:23:05.645Z,22.52
2023-03-03T23:25:37.290Z,22.42
2023-03-03T23:28:08.623Z,20.25
2023-03-03T23:30:37.842Z,22.95
2023-03-03T23:33:06.491Z,21.23
2023-03-03T23:35:41.174Z,20.45
2023-03-03T23:38:20.556Z,21.50
2023-03-03T23:40:56.301Z,19.25
2023-03-03T23:43:24.933Z,21.20
2023-03-03T23:46:01.021Z,22.33
2023-03-03T23:48:35.115Z,22.40
2023-03-03T23:51:06.712Z,26.02
2023-03-03T23:53:40.605Z,22.50
2023-03-03T23:56:11.972Z,25.45
2023-03-03T23:58:41.123Z,23.85
